Time;durP1;ratioP1;P1;durP2;ratioP2;P2;SDS_P1;SDS_P2;PMS_P1;PMS_P2;Temp;Humidity;BMP_temperature;BMP_pressure;BME280_temperature;BME280_humidity;BME280_pressure;Samples;Min_cycle;Max_cycle;Signal;HPM_P1;HPM_P2
2023/12/05 00:01:04;;;;;;;9.80;9.50;;;-2.70;99.90;;;;;;5119812;28;20268;-77
2023/12/05 00:03:31;;;;;;;10.20;9.90;;;-2.70;99.90;;;;;;5117904;28;20241;-76
2023/12/05 00:05:58;;;;;;;10.30;10.00;;;-2.70;99.90;;;;;;5118312;28;20244;-76
2023/12/05 00:08:27;;;;;;;10.00;9.70;;;-2.70;99.90;;;;;;5118114;27;20239;-76
2023/12/05 00:10:54;;;;;;;10.03;9.73;;;-2.70;99.90;;;;;;5117738;28;20324;-76
2023/12/05 00:13:21;;;;;;;10.10;9.80;;;-2.80;99.90;;;;;;5117841;28;20286;-76
2023/12/05 00:15:48;;;;;;;10.20;9.90;;;-2.80;99.90;;;;;;5117408;28;20313;-78
2023/12/05 00:18:15;;;;;;;10.20;9.90;;;-2.80;99.90;;;;;;5116884;28;20228;-77
2023/12/05 00:20:42;;;;;;;10.47;10.17;;;-2.70;99.90;;;;;;5118828;28;20258;-77
2023/12/05 00:23:09;;;;;;;10.07;9.77;;;-2.80;99.90;;;;;;5118589;27;20233;-78
2023/12/05 00:25:38;;;;;;;10.37;10.07;;;-2.80;99.90;;;;;;5116370;28;20256;-78
2023/12/05 00:28:05;;;;;;;10.50;10.20;;;-2.80;99.90;;;;;;5127262;27;20228;-78
2023/12/05 00:30:32;;;;;;;10.10;9.80;;;-2.70;99.90;;;;;;5129831;27;20233;-78
2023/12/05 00:32:59;;;;;;;10.30;10.00;;;-2.70;99.90;;;;;;5130761;27;20754;-79
2023/12/05 00:35:26;;;;;;;10.53;10.23;;;-2.70;99.90;;;;;;5120420;27;20309;-79
2023/12/05 00:37:54;;;;;;;10.30;10.00;;;-2.70;99.90;;;;;;5120366;27;20238;-80
2023/12/05 00:40:21;;;;;;;10.37;10.07;;;-2.70;99.90;;;;;;5119447;27;20232;-75
2023/12/05 00:42:49;;;;;;;10.13;9.83;;;-2.70;99.90;;;;;;5119369;27;20233;-77
2023/12/05 00:45:17;;;;;;;10.63;10.33;;;-2.70;99.90;;;;;;5117141;28;20260;-76
2023/12/05 00:47:44;;;;;;;10.57;10.27;;;-2.70;99.90;;;;;;5117263;27;20271;-78
2023/12/05 00:50:11;;;;;;;10.80;10.50;;;-2.70;99.90;;;;;;5120259;27;20256;-75
2023/12/05 00:52:38;;;;;;;11.07;10.73;;;-2.80;99.90;;;;;;5120932;27;20226;-76
2023/12/05 00:55:06;;;;;;;11.43;11.03;;;-2.80;99.90;;;;;;5120523;27;20256;-76
2023/12/05 00:57:33;;;;;;;10.70;10.40;;;-2.80;99.90;;;;;;5120122;27;20236;-76
2023/12/05 01:00:04;;;;;;;10.80;10.50;;;-2.80;99.90;;;;;;5120686;27;20372;-78
2023/12/05 01:02:31;;;;;;;11.07;10.67;;;-2.90;99.90;;;;;;5120437;27;20215;-76
2023/12/05 01:04:58;;;;;;;10.77;10.47;;;-2.90;99.90;;;;;;5120082;27;20279;-76
2023/12/05 01:07:25;;;;;;;11.20;10.80;;;-2.90;99.90;;;;;;5119970;27;20312;-76
2023/12/05 01:09:52;;;;;;;11.40;11.00;;;-2.90;99.90;;;;;;5120591;27;20286;-76
2023/12/05 01:12:19;;;;;;;11.07;10.67;;;-2.90;99.90;;;;;;5120745;27;20278;-77
2023/12/05 01:14:47;;;;;;;11.03;10.63;;;-2.90;99.90;;;;;;5120531;27;20241;-76
2023/12/05 01:17:16;;;;;;;11.73;11.33;;;-2.90;99.90;;;;;;5119801;27;20229;-77
2023/12/05 01:19:44;;;;;;;11.50;11.10;;;-2.90;99.90;;;;;;5120552;27;20323;-77
2023/12/05 01:22:11;;;;;;;11.30;10.90;;;-2.80;99.90;;;;;;5120250;28;20301;-77
2023/12/05 01:24:38;;;;;;;11.20;10.80;;;-2.90;99.90;;;;;;5119877;28;20272;-78
2023/12/05 01:27:05;;;;;;;11.40;11.00;;;-2.80;99.90;;;;;;5120258;28;20272;-76
2023/12/05 01:29:33;;;;;;;11.80;11.40;;;-2.90;99.90;;;;;;5120163;27;20287;-76
2023/12/05 01:32:00;;;;;;;11.23;10.83;;;-2.80;99.90;;;;;;5119961;28;20698;-77
2023/12/05 01:34:28;;;;;;;11.33;10.93;;;-2.80;99.90;;;;;;5120131;28;20240;-77
2023/12/05 01:36:55;;;;;;;11.30;10.90;;;-2.80;99.90;;;;;;5120052;27;20228;-77
2023/12/05 01:39:22;;;;;;;11.50;11.10;;;-2.80;99.90;;;;;;5119615;28;20332;-77
2023/12/05 01:41:50;;;;;;;11.30;10.90;;;-2.80;99.90;;;;;;5120457;28;20252;-77
2023/12/05 01:44:18;;;;;;;11.10;10.70;;;-2.80;99.90;;;;;;5119703;28;20236;-78
2023/12/05 01:46:46;;;;;;;11.27;10.87;;;-2.70;99.90;;;;;;5119627;28;20235;-77
2023/12/05 01:49:13;;;;;;;10.90;10.50;;;-2.70;99.90;;;;;;5120082;28;20315;-77
2023/12/05 01:51:42;;;;;;;11.20;10.80;;;-2.70;99.90;;;;;;5120404;28;20237;-76
2023/12/05 01:54:09;;;;;;;11.37;10.97;;;-2.60;99.90;;;;;;5119765;28;20295;-77
2023/12/05 01:56:37;;;;;;;11.20;10.80;;;-2.70;99.90;;;;;;5119875;27;20239;-77
2023/12/05 01:59:04;;;;;;;11.00;10.60;;;-2.60;99.90;;;;;;5119933;28;20303;-76
2023/12/05 02:01:32;;;;;;;10.90;10.50;;;-2.60;99.90;;;;;;5119485;27;20584;-76
2023/12/05 02:03:59;;;;;;;11.47;11.07;;;-2.60;99.90;;;;;;5119523;28;20286;-77
2023/12/05 02:06:26;;;;;;;11.50;11.10;;;-2.60;99.90;;;;;;5119287;28;20279;-78
2023/12/05 02:08:56;;;;;;;11.27;10.87;;;-2.60;99.90;;;;;;5119991;28;20290;-78
2023/12/05 02:11:23;;;;;;;11.30;10.90;;;-2.60;99.90;;;;;;5119757;28;20230;-78
2023/12/05 02:13:51;;;;;;;11.33;10.93;;;-2.60;99.90;;;;;;5119599;28;20232;-76
2023/12/05 02:16:28;;;;;;;11.23;10.83;;;-2.50;99.90;;;;;;5119530;28;20315;-76
2023/12/05 02:19:04;;;;;;;11.20;10.80;;;-2.50;99.90;;;;;;5119505;28;20267;-77
2023/12/05 02:21:35;;;;;;;11.07;10.67;;;-2.50;99.90;;;;;;5119907;28;20243;-79
2023/12/05 02:24:33;;;;;;;11.53;11.13;;;-2.50;99.90;;;;;;5121197;28;20264;-76
2023/12/05 02:27:11;;;;;;;11.27;10.87;;;-2.50;99.90;;;;;;5127229;28;20256;-76
2023/12/05 02:29:48;;;;;;;11.60;11.20;;;-2.40;99.90;;;;;;5122538;28;20228;-77
2023/12/05 02:32:15;;;;;;;11.43;11.03;;;-2.40;99.90;;;;;;5119813;28;20389;-77
2023/12/05 02:34:43;;;;;;;11.63;11.23;;;-2.30;99.90;;;;;;5118922;28;20264;-79
2023/12/05 02:37:20;;;;;;;11.97;11.57;;;-2.30;99.90;;;;;;5119480;28;20228;-76
2023/12/05 02:39:56;;;;;;;11.57;11.17;;;-2.30;99.90;;;;;;5125290;28;20330;-76
2023/12/05 02:42:25;;;;;;;11.67;11.27;;;-2.20;99.90;;;;;;5129455;28;20240;-76
2023/12/05 02:44:56;;;;;;;11.43;11.03;;;-2.20;99.90;;;;;;5125500;28;20245;-76
2023/12/05 02:47:26;;;;;;;11.43;11.03;;;-2.20;99.90;;;;;;5118883;27;20323;-76
2023/12/05 02:49:53;;;;;;;11.43;11.03;;;-2.10;99.90;;;;;;5118566;28;20228;-76
2023/12/05 02:52:21;;;;;;;11.80;11.40;;;-2.10;99.90;;;;;;5119410;28;20287;-76
2023/12/05 02:54:48;;;;;;;11.57;11.17;;;-2.00;99.90;;;;;;5118297;28;20237;-76
2023/12/05 02:57:15;;;;;;;11.20;10.80;;;-2.00;99.90;;;;;;5118862;28;20245;-78
2023/12/05 02:59:42;;;;;;;11.20;10.80;;;-1.90;99.90;;;;;;5118943;28;20282;-76
2023/12/05 03:02:11;;;;;;;11.40;11.00;;;-1.90;99.90;;;;;;5119125;28;20233;-76
2023/12/05 03:04:38;;;;;;;11.07;10.67;;;-1.80;99.90;;;;;;5118389;28;20340;-77
2023/12/05 03:07:05;;;;;;;11.60;11.20;;;-1.80;99.90;;;;;;5118416;28;20248;-76
2023/12/05 03:09:32;;;;;;;11.73;11.33;;;-1.70;99.90;;;;;;5118965;28;20239;-76
2023/12/05 03:11:59;;;;;;;11.50;11.10;;;-1.70;99.90;;;;;;5117846;28;20233;-78
2023/12/05 03:14:27;;;;;;;11.50;11.10;;;-1.60;99.90;;;;;;5098780;28;20233;-76
2023/12/05 03:16:54;;;;;;;11.40;11.00;;;-1.60;99.90;;;;;;5098639;28;20230;-76
2023/12/05 03:19:23;;;;;;;11.33;10.93;;;-1.60;99.90;;;;;;5098119;28;20270;-77
2023/12/05 03:21:50;;;;;;;11.40;11.00;;;-1.50;99.90;;;;;;5098350;28;20272;-76
2023/12/05 03:24:17;;;;;;;11.03;10.63;;;-1.40;99.90;;;;;;5097866;28;20239;-76
2023/12/05 03:26:44;;;;;;;11.20;10.80;;;-1.30;99.90;;;;;;5098087;28;20256;-76
2023/12/05 03:29:11;;;;;;;11.53;11.13;;;-1.30;99.90;;;;;;5098330;28;20283;-77
2023/12/05 03:31:40;;;;;;;11.13;10.73;;;-1.30;99.90;;;;;;5097986;28;20231;-76
2023/12/05 03:34:08;;;;;;;11.10;10.70;;;-1.20;99.90;;;;;;5098264;28;20258;-76
2023/12/05 03:36:36;;;;;;;11.40;11.00;;;-1.20;99.90;;;;;;5098025;28;20231;-77
2023/12/05 03:39:04;;;;;;;11.00;10.60;;;-1.20;99.90;;;;;;5098075;28;20279;-76
2023/12/05 03:41:31;;;;;;;11.53;11.13;;;-1.10;99.90;;;;;;5098424;28;20278;-76
2023/12/05 03:43:58;;;;;;;11.27;10.87;;;-1.10;99.90;;;;;;5097723;28;20233;-76
2023/12/05 03:46:25;;;;;;;11.53;11.13;;;-1.00;99.90;;;;;;5097674;28;20226;-76
2023/12/05 03:48:52;;;;;;;11.37;10.97;;;-1.00;99.90;;;;;;5097431;28;20239;-76
2023/12/05 03:51:19;;;;;;;11.03;10.63;;;-1.00;99.90;;;;;;5097931;28;20237;-77
2023/12/05 03:53:48;;;;;;;11.50;11.10;;;-1.00;99.90;;;;;;5096846;28;20321;-76
2023/12/05 03:56:15;;;;;;;11.17;10.77;;;-0.90;99.90;;;;;;5097682;28;20319;-76
2023/12/05 03:58:42;;;;;;;11.30;10.90;;;-0.90;99.90;;;;;;5097005;28;20253;-78
2023/12/05 04:01:09;;;;;;;11.67;11.27;;;-0.80;99.90;;;;;;5097899;28;20228;-76
2023/12/05 04:03:37;;;;;;;11.53;11.13;;;-0.80;99.90;;;;;;5100237;27;20275;-76
2023/12/05 04:06:06;;;;;;;11.43;11.03;;;-0.80;99.90;;;;;;5134051;27;20227;-76
2023/12/05 04:08:33;;;;;;;11.53;11.13;;;-0.70;99.90;;;;;;5116718;27;20288;-77
2023/12/05 04:11:01;;;;;;;11.47;11.07;;;-0.70;99.90;;;;;;5146873;27;20275;-76
2023/12/05 04:13:28;;;;;;;11.53;11.13;;;-0.70;99.90;;;;;;5141403;27;20224;-76
2023/12/05 04:15:56;;;;;;;11.77;11.37;;;-0.70;99.90;;;;;;5140586;27;20263;-77
2023/12/05 04:18:23;;;;;;;11.77;11.37;;;-0.70;99.90;;;;;;5129146;27;20384;-77
2023/12/05 04:20:50;;;;;;;11.37;10.97;;;-0.60;99.90;;;;;;5126407;27;20227;-76
2023/12/05 04:23:17;;;;;;;11.67;11.27;;;-0.60;99.90;;;;;;5117231;27;20228;-77
2023/12/05 04:25:44;;;;;;;11.40;11.00;;;-0.60;99.90;;;;;;5118241;27;20215;-76
2023/12/05 04:28:12;;;;;;;11.23;10.83;;;-0.60;99.90;;;;;;5120761;27;20262;-77
2023/12/05 04:30:40;;;;;;;11.23;10.83;;;-0.50;99.90;;;;;;5118888;27;20256;-77
2023/12/05 04:33:07;;;;;;;11.30;10.90;;;-0.60;99.90;;;;;;5117376;27;20278;-79
2023/12/05 04:35:36;;;;;;;11.57;11.17;;;-0.50;99.90;;;;;;5117587;27;20254;-77
2023/12/05 04:38:04;;;;;;;11.23;10.83;;;-0.50;99.90;;;;;;5118028;27;20236;-77
2023/12/05 04:40:31;;;;;;;11.30;10.90;;;-0.50;99.90;;;;;;5118687;27;20292;-77
2023/12/05 04:42:58;;;;;;;11.50;11.10;;;-0.50;99.90;;;;;;5118470;27;20235;-76
2023/12/05 04:45:27;;;;;;;11.73;11.33;;;-0.50;99.90;;;;;;5129583;27;20233;-77
2023/12/05 04:47:54;;;;;;;11.27;10.87;;;-0.50;99.90;;;;;;5123653;27;20267;-77
2023/12/05 04:50:21;;;;;;;11.07;10.67;;;-0.40;99.90;;;;;;5118102;27;20285;-77
2023/12/05 04:52:49;;;;;;;11.43;11.03;;;-0.40;99.90;;;;;;5117966;27;20216;-76
2023/12/05 04:55:16;;;;;;;11.07;10.67;;;-0.40;99.90;;;;;;5117184;27;20239;-76
2023/12/05 04:57:43;;;;;;;11.27;10.87;;;-0.30;99.90;;;;;;5117393;27;20236;-77
2023/12/05 05:00:13;;;;;;;11.30;10.90;;;-0.40;99.90;;;;;;5117609;27;20236;-77
2023/12/05 05:02:41;;;;;;;11.00;10.60;;;-0.40;99.90;;;;;;5117071;27;20440;-77
2023/12/05 05:05:09;;;;;;;11.30;10.90;;;-0.40;99.90;;;;;;5105127;27;20282;-76
2023/12/05 05:07:36;;;;;;;11.27;10.87;;;-0.40;99.90;;;;;;5096302;28;20267;-77
2023/12/05 05:10:03;;;;;;;10.83;10.53;;;-0.40;99.90;;;;;;5096627;28;20237;-77
2023/12/05 05:12:31;;;;;;;10.93;10.57;;;-0.40;99.90;;;;;;5096309;28;20261;-77
2023/12/05 05:14:58;;;;;;;11.10;10.70;;;-0.40;99.90;;;;;;5096638;28;20234;-77
2023/12/05 05:17:25;;;;;;;10.40;10.10;;;-0.30;99.90;;;;;;5096905;28;20302;-76
2023/12/05 05:19:54;;;;;;;10.97;10.67;;;-0.30;99.90;;;;;;5096331;28;20265;-76
2023/12/05 05:22:21;;;;;;;11.17;10.87;;;-0.30;99.90;;;;;;5096819;28;20229;-77
2023/12/05 05:24:48;;;;;;;10.90;10.60;;;-0.30;99.90;;;;;;5097252;28;20249;-78
2023/12/05 05:27:19;;;;;;;10.77;10.47;;;-0.30;99.90;;;;;;5097308;28;20236;-77
2023/12/05 05:29:47;;;;;;;10.60;10.30;;;-0.20;99.90;;;;;;5096999;28;20233;-77
2023/12/05 05:32:14;;;;;;;10.47;10.17;;;-0.20;99.90;;;;;;5096832;28;20241;-77
2023/12/05 05:34:42;;;;;;;10.53;10.23;;;-0.10;99.90;;;;;;5098567;28;20225;-77
2023/12/05 05:37:10;;;;;;;10.70;10.40;;;-0.10;99.90;;;;;;5100225;28;20340;-78
2023/12/05 05:39:40;;;;;;;10.50;10.20;;;-0.10;99.90;;;;;;5100726;28;20237;-77
2023/12/05 05:42:10;;;;;;;10.60;10.30;;;-0.10;99.90;;;;;;5100384;28;20298;-76
2023/12/05 05:44:39;;;;;;;10.60;10.30;;;-0.10;99.90;;;;;;5100347;28;20236;-77
2023/12/05 05:47:09;;;;;;;11.03;10.63;;;0.00;99.90;;;;;;5100440;28;20229;-77
2023/12/05 05:49:36;;;;;;;10.60;10.30;;;0.00;99.90;;;;;;5100789;28;20234;-77
2023/12/05 05:52:04;;;;;;;10.60;10.30;;;0.00;99.90;;;;;;5100712;28;20232;-77
2023/12/05 05:54:35;;;;;;;10.20;9.90;;;0.00;99.90;;;;;;5112822;27;20239;-78
2023/12/05 05:57:02;;;;;;;10.23;9.93;;;-0.10;99.90;;;;;;5136251;27;20292;-77
2023/12/05 05:59:32;;;;;;;10.33;10.03;;;-0.10;99.90;;;;;;5143424;27;20240;-77
2023/12/05 06:01:59;;;;;;;10.17;9.87;;;-0.10;99.90;;;;;;5136082;27;20221;-77
2023/12/05 06:04:27;;;;;;;10.33;10.03;;;-0.10;99.90;;;;;;5134713;28;20220;-77
2023/12/05 06:06:56;;;;;;;10.37;10.07;;;-0.10;99.90;;;;;;5121249;27;20307;-76
2023/12/05 06:09:23;;;;;;;10.00;9.70;;;-0.20;99.90;;;;;;5123939;27;20225;-77
2023/12/05 06:11:52;;;;;;;10.33;10.03;;;-0.20;99.90;;;;;;5120458;28;20249;-77
2023/12/05 06:14:19;;;;;;;10.23;9.93;;;-0.20;99.90;;;;;;5120187;27;20225;-77
2023/12/05 06:16:46;;;;;;;10.50;10.20;;;-0.30;99.90;;;;;;5120098;28;20232;-77
2023/12/05 06:19:13;;;;;;;9.97;9.67;;;-0.30;99.90;;;;;;5119518;27;20236;-77
2023/12/05 06:21:40;;;;;;;10.70;10.40;;;-0.30;99.90;;;;;;5120148;28;20290;-78
2023/12/05 06:24:08;;;;;;;10.00;9.70;;;-0.30;99.90;;;;;;5122506;27;20286;-77
2023/12/05 06:26:36;;;;;;;10.27;9.97;;;-0.30;99.90;;;;;;5122299;27;20239;-77
2023/12/05 06:29:05;;;;;;;10.20;9.90;;;-0.30;99.90;;;;;;5122215;28;20300;-77
2023/12/05 06:31:33;;;;;;;10.50;10.20;;;-0.30;99.90;;;;;;5122757;28;20236;-78
2023/12/05 06:34:00;;;;;;;10.47;10.17;;;-0.30;99.90;;;;;;5130770;27;20223;-77
2023/12/05 06:36:28;;;;;;;10.47;10.17;;;-0.30;99.90;;;;;;5125879;27;20227;-78
2023/12/05 06:38:55;;;;;;;10.77;10.47;;;-0.30;99.90;;;;;;5121161;27;20239;-78
2023/12/05 06:41:22;;;;;;;10.90;10.50;;;-0.30;99.90;;;;;;5120141;27;20236;-77
2023/12/05 06:43:49;;;;;;;10.60;10.30;;;-0.30;99.90;;;;;;5119719;27;20263;-78
2023/12/05 06:46:18;;;;;;;11.00;10.60;;;-0.30;99.90;;;;;;5119724;27;20292;-78
2023/12/05 06:48:46;;;;;;;11.00;10.60;;;-0.40;99.90;;;;;;5120211;27;20290;-78
2023/12/05 06:51:18;;;;;;;11.18;10.77;;;-0.40;99.90;;;;;;5119633;27;20406;-77
2023/12/05 06:53:46;;;;;;;11.20;10.80;;;-0.40;99.90;;;;;;5118062;27;20236;-77
2023/12/05 06:56:15;;;;;;;11.30;10.90;;;-0.40;99.90;;;;;;5118451;27;20239;-77
2023/12/05 06:58:42;;;;;;;11.10;10.70;;;-0.40;99.90;;;;;;5118959;27;20243;-77
2023/12/05 07:01:09;;;;;;;11.33;10.93;;;-0.40;99.90;;;;;;5117344;27;20358;-78
2023/12/05 07:03:38;;;;;;;11.00;10.60;;;-0.40;99.90;;;;;;5117225;27;20251;-77
2023/12/05 07:06:06;;;;;;;10.73;10.43;;;-0.50;99.90;;;;;;5117181;28;20272;-77
2023/12/05 07:08:33;;;;;;;11.10;10.70;;;-0.50;99.90;;;;;;5117336;28;20324;-77
2023/12/05 07:11:02;;;;;;;10.77;10.47;;;-0.50;99.90;;;;;;5117840;28;20271;-77
2023/12/05 07:13:29;;;;;;;11.20;10.80;;;-0.50;99.90;;;;;;5118230;28;20291;-78
2023/12/05 07:15:57;;;;;;;11.07;10.67;;;-0.50;99.90;;;;;;5118257;27;20234;-76
2023/12/05 07:18:24;;;;;;;11.20;10.80;;;-0.50;99.90;;;;;;5117790;27;20228;-77
2023/12/05 07:20:52;;;;;;;11.20;10.80;;;-0.50;99.90;;;;;;5117745;27;20255;-77
2023/12/05 07:23:20;;;;;;;11.40;11.00;;;-0.50;99.90;;;;;;5115748;27;20263;-77
2023/12/05 07:25:47;;;;;;;11.10;10.70;;;-0.40;99.90;;;;;;5117066;27;20227;-77
2023/12/05 07:28:14;;;;;;;11.10;10.70;;;-0.40;99.90;;;;;;5116249;27;20256;-77
2023/12/05 07:30:41;;;;;;;11.30;10.90;;;-0.40;99.90;;;;;;5116879;27;20220;-77
2023/12/05 07:33:08;;;;;;;11.27;10.87;;;-0.30;99.90;;;;;;5116819;27;20229;-78
2023/12/05 07:35:35;;;;;;;11.27;10.87;;;-0.30;99.90;;;;;;5116998;27;20262;-77
2023/12/05 07:38:04;;;;;;;11.20;10.80;;;-0.20;99.90;;;;;;5116249;27;20264;-77
2023/12/05 07:40:31;;;;;;;11.30;10.90;;;-0.20;99.90;;;;;;5116009;27;20291;-78
2023/12/05 07:42:58;;;;;;;11.10;10.70;;;-0.20;99.90;;;;;;5116821;27;20221;-78
2023/12/05 07:45:25;;;;;;;11.00;10.60;;;-0.20;99.90;;;;;;5116282;27;20300;-77
2023/12/05 07:47:52;;;;;;;10.93;10.57;;;-0.20;99.90;;;;;;5116388;27;20254;-77
2023/12/05 07:50:20;;;;;;;10.57;10.27;;;-0.20;99.90;;;;;;5117125;27;20252;-77
2023/12/05 07:52:50;;;;;;;10.60;10.30;;;-0.20;99.90;;;;;;5118042;27;20630;-77
2023/12/05 07:55:19;;;;;;;10.80;10.50;;;-0.20;99.90;;;;;;5118348;27;21257;-77
2023/12/05 07:57:48;;;;;;;10.40;10.10;;;-0.20;99.90;;;;;;5118874;27;20228;-77
2023/12/05 08:00:18;;;;;;;10.60;10.30;;;-0.10;99.90;;;;;;5116734;27;20271;-77
2023/12/05 08:02:45;;;;;;;10.37;10.07;;;-0.10;99.90;;;;;;5119027;27;20290;-78
2023/12/05 08:05:12;;;;;;;10.43;10.13;;;-0.10;99.90;;;;;;5118650;27;20239;-78
2023/12/05 08:07:40;;;;;;;10.50;10.20;;;-0.10;99.90;;;;;;5117304;27;20696;-78
2023/12/05 08:10:09;;;;;;;10.27;9.97;;;0.00;99.90;;;;;;5118456;27;20333;-79
2023/12/05 08:12:37;;;;;;;10.20;9.90;;;0.00;99.90;;;;;;5118118;27;20279;-79
2023/12/05 08:15:06;;;;;;;10.57;10.27;;;0.10;99.90;;;;;;5106764;27;20232;-78
2023/12/05 08:17:34;;;;;;;10.87;10.47;;;0.20;99.90;;;;;;5097205;28;20237;-78
2023/12/05 08:20:02;;;;;;;10.93;10.53;;;0.20;99.90;;;;;;5098143;28;20239;-78
2023/12/05 08:22:29;;;;;;;11.10;10.70;;;0.30;99.90;;;;;;5099900;28;20291;-78
2023/12/05 08:24:56;;;;;;;11.40;11.00;;;0.40;99.90;;;;;;5098619;28;20237;-78
2023/12/05 08:27:23;;;;;;;11.17;10.77;;;0.40;99.90;;;;;;5101831;28;20233;-78
2023/12/05 08:29:52;;;;;;;11.33;10.93;;;0.50;99.90;;;;;;5103261;28;20230;-78
2023/12/05 08:32:19;;;;;;;11.17;10.77;;;0.60;99.90;;;;;;5107983;28;20244;-78
2023/12/05 08:34:46;;;;;;;10.97;10.57;;;0.60;99.90;;;;;;5115764;28;20222;-79
2023/12/05 08:37:13;;;;;;;11.33;10.93;;;0.60;99.90;;;;;;5110366;28;20225;-78
2023/12/05 08:39:41;;;;;;;11.43;11.03;;;0.70;99.90;;;;;;5109756;28;20226;-78
2023/12/05 08:42:08;;;;;;;11.07;10.67;;;0.80;99.90;;;;;;5119560;27;20261;-77
2023/12/05 08:44:36;;;;;;;10.60;10.30;;;0.80;99.90;;;;;;5119141;27;20248;-79
2023/12/05 08:47:05;;;;;;;11.07;10.67;;;0.80;99.90;;;;;;5119648;27;20276;-78
2023/12/05 08:49:32;;;;;;;11.43;11.03;;;0.80;99.90;;;;;;5119345;27;20218;-77
2023/12/05 08:51:59;;;;;;;11.07;10.67;;;0.90;99.90;;;;;;5119130;27;20279;-78
2023/12/05 08:54:26;;;;;;;11.40;11.00;;;0.90;99.90;;;;;;5119257;27;20237;-78
2023/12/05 08:56:53;;;;;;;11.10;10.70;;;0.90;99.90;;;;;;5117018;27;20256;-77
2023/12/05 08:59:21;;;;;;;11.10;10.70;;;0.90;99.90;;;;;;5119416;27;20224;-78
2023/12/05 09:01:48;;;;;;;10.93;10.53;;;1.00;99.90;;;;;;5116645;27;20205;-79
2023/12/05 09:04:17;;;;;;;11.00;10.60;;;1.00;99.90;;;;;;5112896;28;20306;-79
2023/12/05 09:06:44;;;;;;;11.30;10.90;;;1.10;99.90;;;;;;5108162;28;20320;-79
2023/12/05 09:09:11;;;;;;;11.07;10.67;;;1.10;99.90;;;;;;5112887;27;20252;-81
2023/12/05 09:11:39;;;;;;;11.23;10.83;;;1.10;99.90;;;;;;5131970;27;20213;-79
2023/12/05 09:14:06;;;;;;;11.40;11.00;;;1.20;99.90;;;;;;5130451;27;20217;-79
2023/12/05 09:16:34;;;;;;;11.40;11.00;;;1.20;99.90;;;;;;5133835;27;20220;-77
2023/12/05 09:19:01;;;;;;;11.50;11.10;;;1.30;99.90;;;;;;5132587;27;20236;-78
2023/12/05 09:21:30;;;;;;;11.10;10.70;;;1.30;99.90;;;;;;5132425;27;20228;-79
2023/12/05 09:23:57;;;;;;;11.17;10.77;;;1.30;99.90;;;;;;5128706;27;20252;-79
2023/12/05 09:26:24;;;;;;;10.87;10.57;;;1.40;99.90;;;;;;5117737;27;20232;-78
2023/12/05 09:28:51;;;;;;;10.60;10.30;;;1.40;99.90;;;;;;5147995;27;20213;-78
2023/12/05 09:31:18;;;;;;;10.80;10.50;;;1.50;99.90;;;;;;5133933;27;20201;-78
2023/12/05 09:33:46;;;;;;;10.63;10.33;;;1.70;99.90;;;;;;5124732;27;20259;-79
2023/12/05 09:36:13;;;;;;;10.43;10.13;;;1.90;99.90;;;;;;5124798;27;20342;-80
2023/12/05 09:38:42;;;;;;;10.20;9.90;;;2.10;99.90;;;;;;5105866;27;20237;-79
2023/12/05 09:41:11;;;;;;;10.43;10.13;;;2.20;99.90;;;;;;5104075;28;20221;-79
2023/12/05 09:43:40;;;;;;;10.43;10.13;;;2.30;99.90;;;;;;5107491;28;20228;-78
2023/12/05 09:46:08;;;;;;;10.63;10.33;;;2.40;99.90;;;;;;5106077;28;20323;-80
2023/12/05 09:48:48;;;;;;;10.77;10.47;;;2.50;99.90;;;;;;5109159;28;20285;-79
2023/12/05 09:51:17;;;;;;;10.70;10.40;;;2.60;99.90;;;;;;5124104;28;20221;-79
2023/12/05 09:53:48;;;;;;;10.87;10.57;;;2.60;99.90;;;;;;5123862;27;20232;-78
2023/12/05 09:56:15;;;;;;;10.67;10.37;;;2.60;99.90;;;;;;5125118;28;20255;-78
2023/12/05 09:58:45;;;;;;;10.93;10.63;;;2.60;99.90;;;;;;5124120;28;20306;-79
2023/12/05 10:01:16;;;;;;;10.90;10.60;;;2.60;99.90;;;;;;5105765;28;20225;-79
2023/12/05 10:03:45;;;;;;;10.47;10.17;;;2.60;99.90;;;;;;5108336;28;20259;-79
2023/12/05 10:06:13;;;;;;;10.90;10.60;;;2.70;99.90;;;;;;5124565;27;20229;-81
2023/12/05 10:08:42;;;;;;;10.80;10.50;;;2.70;99.90;;;;;;5124322;28;20233;-79
2023/12/05 10:11:13;;;;;;;10.97;10.67;;;2.70;99.90;;;;;;5124454;28;20268;-79
2023/12/05 10:13:40;;;;;;;10.87;10.57;;;2.70;99.90;;;;;;5124319;28;20293;-79
2023/12/05 10:16:08;;;;;;;11.03;10.73;;;2.60;99.90;;;;;;5117509;28;20295;-79
2023/12/05 10:18:39;;;;;;;10.70;10.40;;;2.60;99.90;;;;;;5104176;28;20229;-79
2023/12/05 10:21:06;;;;;;;11.23;10.83;;;2.70;99.90;;;;;;5103265;28;20226;-79
2023/12/05 10:23:34;;;;;;;11.50;11.10;;;2.70;99.90;;;;;;5104796;28;20241;-79
2023/12/05 10:26:02;;;;;;;11.17;10.87;;;2.70;99.90;;;;;;5103930;28;20256;-79
2023/12/05 10:28:51;;;;;;;11.10;10.80;;;2.70;99.90;;;;;;5162601;22;20229;-88
2023/12/05 10:31:20;;;;;;;11.30;10.90;;;2.80;99.90;;;;;;5125708;28;20221;-89
2023/12/05 10:33:49;;;;;;;11.50;11.10;;;2.70;99.90;;;;;;5118885;28;20221;-87
2023/12/05 10:36:19;;;;;;;11.20;10.80;;;2.70;99.90;;;;;;5131260;28;20225;-87
2023/12/05 10:38:48;;;;;;;10.80;10.50;;;2.80;99.90;;;;;;5126451;28;20229;-86
2023/12/05 10:41:35;;;;;;;10.40;10.10;;;2.90;99.90;;;;;;5120150;27;20228;-88
2023/12/05 10:47:09;;;;;;;10.50;10.20;;;3.40;99.90;;;;;;5122091;28;20226;-85
2023/12/05 10:49:48;;;;;;;10.50;10.20;;;3.70;99.90;;;;;;5106547;28;20233;-88
2023/12/05 10:52:31;;;;;;;10.80;10.50;;;3.80;99.90;;;;;;5125017;28;20224;-86
2023/12/05 10:55:06;;;;;;;10.90;10.60;;;3.80;99.90;;;;;;5126696;27;20239;-86
2023/12/05 10:58:01;;;;;;;11.43;11.03;;;3.80;99.90;;;;;;5123077;28;20271;-90
2023/12/05 11:03:18;;;;;;;11.50;11.10;;;3.60;99.90;;;;;;5119893;28;20218;-85
2023/12/05 11:05:56;;;;;;;11.33;10.93;;;3.60;99.90;;;;;;5120974;27;20251;-87
2023/12/05 11:08:27;;;;;;;10.77;10.47;;;3.60;99.90;;;;;;5105695;28;20342;-86
2023/12/05 11:10:57;;;;;;;11.00;10.70;;;3.60;99.90;;;;;;5104781;28;20240;-86
2023/12/05 11:16:24;;;;;;;11.10;10.80;;;3.70;99.90;;;;;;5105333;28;20264;-86
2023/12/05 11:19:13;;;;;;;11.10;10.80;;;3.80;99.90;;;;;;5104643;27;20241;-86
2023/12/05 11:22:03;;;;;;;10.77;10.47;;;3.80;99.90;;;;;;5105477;28;20228;-86
2023/12/05 11:25:00;;;;;;;11.50;11.10;;;3.80;99.90;;;;;;5104964;28;20248;-86
2023/12/05 11:27:48;;;;;;;10.70;10.40;;;3.80;99.90;;;;;;5104127;28;20248;-86
2023/12/05 11:30:42;;;;;;;10.40;10.10;;;4.00;99.90;;;;;;5104760;28;20242;-85
2023/12/05 11:33:31;;;;;;;10.70;10.40;;;4.30;99.90;;;;;;5103900;28;20217;-87
2023/12/05 11:38:54;;;;;;;10.67;10.37;;;4.60;99.90;;;;;;5104400;28;20221;-86
2023/12/05 11:41:23;;;;;;;10.83;10.53;;;4.60;99.90;;;;;;5105004;28;20229;-86
2023/12/05 11:44:19;;;;;;;11.00;10.70;;;4.60;99.90;;;;;;5104966;28;20279;-89
2023/12/05 11:46:48;;;;;;;11.10;10.80;;;4.50;99.90;;;;;;5110988;27;20225;-86
2023/12/05 11:49:35;;;;;;;11.10;10.80;;;4.40;99.90;;;;;;5105441;28;20280;-86
2023/12/05 11:55:02;;;;;;;11.00;10.70;;;4.30;99.90;;;;;;5105159;28;20221;-87
2023/12/05 11:57:33;;;;;;;10.70;10.40;;;4.40;99.90;;;;;;5104820;28;20234;-86
2023/12/05 12:00:02;;;;;;;10.20;9.90;;;4.50;99.90;;;;;;5109987;28;20283;-86
2023/12/05 12:05:28;;;;;;;10.10;9.80;;;5.00;99.90;;;;;;5105450;28;20257;-86
2023/12/05 12:07:57;;;;;;;10.17;9.87;;;5.20;99.90;;;;;;5105048;28;20320;-85
2023/12/05 12:10:26;;;;;;;10.30;10.00;;;5.50;99.90;;;;;;5106016;28;20287;-86
2023/12/05 12:12:53;;;;;;;10.47;10.17;;;5.60;99.90;;;;;;5105050;28;20233;-87
2023/12/05 12:15:23;;;;;;;10.23;9.93;;;5.50;99.90;;;;;;5105379;28;20229;-85
2023/12/05 12:17:52;;;;;;;10.20;9.90;;;5.40;99.90;;;;;;5104598;28;20240;-85
2023/12/05 12:20:32;;;;;;;10.43;10.13;;;5.50;99.90;;;;;;5105663;28;20324;-87
2023/12/05 12:23:02;;;;;;;10.10;9.80;;;5.50;99.90;;;;;;5106496;28;20223;-87
2023/12/05 12:25:31;;;;;;;10.20;9.90;;;5.70;99.90;;;;;;5105130;28;20229;-88
2023/12/05 12:27:59;;;;;;;10.13;9.83;;;5.80;99.90;;;;;;5104631;28;20222;-88
2023/12/05 12:30:38;;;;;;;10.30;10.00;;;5.90;99.90;;;;;;5106428;28;20340;-88
2023/12/05 12:33:10;;;;;;;10.57;10.27;;;6.00;99.90;;;;;;5105104;28;20236;-88
2023/12/05 12:35:38;;;;;;;10.50;10.20;;;6.10;99.90;;;;;;5109341;28;20233;-87
2023/12/05 12:38:24;;;;;;;10.33;10.03;;;6.20;99.90;;;;;;5105130;28;20221;-88
2023/12/05 12:40:56;;;;;;;10.80;10.50;;;6.30;99.90;;;;;;5104656;28;20252;-88
2023/12/05 12:46:35;;;;;;;10.60;10.30;;;6.50;99.90;;;;;;5104111;28;20233;-89
2023/12/05 12:49:06;;;;;;;10.40;10.10;;;6.60;99.90;;;;;;5104595;28;20248;-89
2023/12/05 12:51:38;;;;;;;10.50;10.20;;;6.60;99.90;;;;;;5104788;28;20264;-89
2023/12/05 12:54:24;;;;;;;10.60;10.30;;;6.60;99.90;;;;;;5104923;28;20247;-90
2023/12/05 13:02:50;;;;;;;10.87;10.57;;;6.40;99.90;;;;;;5110311;28;20228;-88
2023/12/05 13:05:22;;;;;;;10.90;10.60;;;6.30;99.90;;;;;;5108516;28;20225;-88
2023/12/05 13:07:53;;;;;;;10.23;9.93;;;6.10;99.90;;;;;;5108463;28;20281;-88